Time;durP1;ratioP1;P1;durP2;ratioP2;P2;SDS_P1;SDS_P2;PMS_P1;PMS_P2;Temp;Humidity;BMP_temperature;BMP_pressure;BME280_temperature;BME280_humidity;BME280_pressure;Samples;Min_cycle;Max_cycle;Signal;HPM_P1;HPM_P2
2023/12/06 00:00:06;;;;;;;10.48;2.80;;;;;;;;;;1042482;28;20016;-72
2023/12/06 00:00:36;;;;;;;2.17;1.95;;;;;;;;;;1043547;28;20079;-72
2023/12/06 00:01:07;;;;;;;14.55;3.83;;;;;;;;;;1043685;28;20017;-73
2023/12/06 00:01:37;;;;;;;4.22;1.98;;;;;;;;;;1043448;28;20166;-72
2023/12/06 00:02:08;;;;;;;3.33;2.30;;;;;;;;;;1043554;28;20029;-72
2023/12/06 00:02:38;;;;;;;3.55;1.35;;;;;;;;;;1043469;28;20029;-72
2023/12/06 00:03:09;;;;;;;5.80;3.20;;;;;;;;;;1044015;28;20434;-72
2023/12/06 00:03:39;;;;;;;1.70;1.38;;;;;;;;;;1043911;28;20043;-72
2023/12/06 00:04:10;;;;;;;1.85;1.67;;;;;;;;;;1043452;28;20017;-72
2023/12/06 00:04:40;;;;;;;3.60;2.00;;;;;;;;;;1043367;28;20033;-72
2023/12/06 00:05:11;;;;;;;5.35;4.80;;;;;;;;;;1043436;28;20032;-72
2023/12/06 00:05:41;;;;;;;4.72;3.63;;;;;;;;;;1043188;28;20381;-72
2023/12/06 00:06:11;;;;;;;8.05;3.13;;;;;;;;;;1043531;28;20024;-72
2023/12/06 00:06:45;;;;;;;7.32;2.63;;;;;;;;;;1043103;28;20052;-73
2023/12/06 00:07:15;;;;;;;2.00;1.88;;;;;;;;;;1043624;28;20489;-73
2023/12/06 00:07:46;;;;;;;40.15;4.15;;;;;;;;;;1043817;28;20954;-72
2023/12/06 00:08:16;;;;;;;5.38;3.92;;;;;;;;;;1043858;28;20032;-72
2023/12/06 00:08:48;;;;;;;5.85;3.40;;;;;;;;;;1043794;28;20023;-72
2023/12/06 00:09:19;;;;;;;7.32;3.10;;;;;;;;;;1043750;28;20028;-72
2023/12/06 00:09:49;;;;;;;2.85;2.58;;;;;;;;;;1043843;28;20500;-72
2023/12/06 00:10:19;;;;;;;23.33;4.45;;;;;;;;;;1043583;28;20025;-72
2023/12/06 00:10:50;;;;;;;4.65;3.42;;;;;;;;;;1043725;28;20094;-72
2023/12/06 00:11:20;;;;;;;5.97;3.80;;;;;;;;;;1043826;28;20029;-73
2023/12/06 00:11:51;;;;;;;2.45;2.25;;;;;;;;;;1043883;28;20024;-72
2023/12/06 00:12:21;;;;;;;7.30;2.85;;;;;;;;;;1043819;28;20071;-72
2023/12/06 00:12:52;;;;;;;2.00;1.85;;;;;;;;;;1043731;28;20017;-72
2023/12/06 00:13:22;;;;;;;4.35;1.83;;;;;;;;;;1043785;28;20063;-72
2023/12/06 00:13:53;;;;;;;4.30;3.90;;;;;;;;;;1043815;28;20025;-72
2023/12/06 00:14:23;;;;;;;1.70;1.60;;;;;;;;;;1043337;28;20021;-72
2023/12/06 00:14:53;;;;;;;2.55;2.33;;;;;;;;;;1043420;28;20504;-72
2023/12/06 00:15:24;;;;;;;2.80;2.60;;;;;;;;;;1043631;28;20546;-72
2023/12/06 00:15:54;;;;;;;6.72;4.45;;;;;;;;;;1043438;28;20166;-73
2023/12/06 00:16:25;;;;;;;7.93;4.00;;;;;;;;;;1043469;28;20021;-73
2023/12/06 00:16:56;;;;;;;4.32;2.58;;;;;;;;;;1043748;28;20036;-74
2023/12/06 00:17:26;;;;;;;1.58;1.48;;;;;;;;;;1043741;28;20031;-73
2023/12/06 00:17:57;;;;;;;8.80;3.30;;;;;;;;;;1043621;28;20032;-73
2023/12/06 00:18:27;;;;;;;2.60;2.10;;;;;;;;;;1043401;28;20036;-73
2023/12/06 00:18:58;;;;;;;2.10;1.98;;;;;;;;;;1043503;28;20025;-73
2023/12/06 00:19:28;;;;;;;5.03;2.67;;;;;;;;;;1043305;28;20071;-73
2023/12/06 00:19:59;;;;;;;6.53;4.07;;;;;;;;;;1043355;28;20465;-73
2023/12/06 00:20:29;;;;;;;1.33;1.23;;;;;;;;;;1043561;28;20388;-73
2023/12/06 00:20:59;;;;;;;12.75;3.30;;;;;;;;;;1043531;28;20467;-72
2023/12/06 00:21:30;;;;;;;3.78;2.22;;;;;;;;;;1043559;28;20025;-70
2023/12/06 00:22:00;;;;;;;3.58;3.22;;;;;;;;;;1043305;28;20027;-71
2023/12/06 00:22:31;;;;;;;8.00;2.75;;;;;;;;;;1043441;28;20021;-73
2023/12/06 00:23:02;;;;;;;3.63;3.28;;;;;;;;;;1043159;28;20032;-72
2023/12/06 00:23:32;;;;;;;2.28;1.88;;;;;;;;;;1043448;28;20472;-72
2023/12/06 00:24:04;;;;;;;15.05;3.35;;;;;;;;;;1043488;28;20084;-72
2023/12/06 00:24:35;;;;;;;2.70;1.83;;;;;;;;;;1043630;28;20372;-72
2023/12/06 00:25:05;;;;;;;6.53;4.53;;;;;;;;;;1043994;28;20028;-72
2023/12/06 00:25:36;;;;;;;2.92;2.20;;;;;;;;;;1043742;28;20025;-72
2023/12/06 00:26:06;;;;;;;2.00;1.90;;;;;;;;;;1043375;28;20031;-72
2023/12/06 00:26:39;;;;;;;2.65;1.88;;;;;;;;;;1043411;28;20017;-72
2023/12/06 00:27:10;;;;;;;4.20;3.35;;;;;;;;;;1042865;28;20112;-72
2023/12/06 00:27:40;;;;;;;7.00;2.55;;;;;;;;;;1043452;28;20518;-73
2023/12/06 00:28:11;;;;;;;15.05;3.50;;;;;;;;;;1043913;28;20469;-73
2023/12/06 00:28:41;;;;;;;4.95;2.67;;;;;;;;;;1043179;28;20083;-72
2023/12/06 00:29:12;;;;;;;1.35;1.25;;;;;;;;;;1043403;28;20017;-73
2023/12/06 00:29:42;;;;;;;3.63;1.95;;;;;;;;;;1043644;28;20488;-72
2023/12/06 00:30:13;;;;;;;2.40;2.22;;;;;;;;;;1043527;28;20021;-72
2023/12/06 00:30:43;;;;;;;1.50;1.40;;;;;;;;;;1043389;28;20063;-72
2023/12/06 00:31:14;;;;;;;7.45;2.50;;;;;;;;;;1043836;28;20021;-72
2023/12/06 00:31:45;;;;;;;6.10;3.50;;;;;;;;;;1043657;28;20366;-72
2023/12/06 00:32:15;;;;;;;2.53;2.33;;;;;;;;;;1043363;28;20176;-72
2023/12/06 00:32:46;;;;;;;3.35;2.08;;;;;;;;;;1043506;28;20021;-72
2023/12/06 00:33:16;;;;;;;8.55;3.83;;;;;;;;;;1042910;28;20027;-72
2023/12/06 00:33:47;;;;;;;3.58;3.05;;;;;;;;;;1043299;28;20013;-72
2023/12/06 00:34:17;;;;;;;2.75;2.55;;;;;;;;;;1043487;28;20032;-72
2023/12/06 00:34:47;;;;;;;16.02;2.47;;;;;;;;;;1043284;28;20099;-72
2023/12/06 00:35:18;;;;;;;7.55;3.47;;;;;;;;;;1043881;28;20025;-72
2023/12/06 00:35:48;;;;;;;5.40;3.75;;;;;;;;;;1043744;28;20055;-72
2023/12/06 00:36:19;;;;;;;24.60;5.35;;;;;;;;;;1043803;28;20016;-72
2023/12/06 00:36:50;;;;;;;2.55;2.10;;;;;;;;;;1043516;28;20033;-72
2023/12/06 00:37:20;;;;;;;2.35;1.42;;;;;;;;;;1043466;28;20064;-72
2023/12/06 00:37:51;;;;;;;15.75;2.08;;;;;;;;;;1039060;28;20021;-72
2023/12/06 00:38:21;;;;;;;3.92;3.28;;;;;;;;;;1039668;28;20381;-72
2023/12/06 00:38:52;;;;;;;3.38;3.03;;;;;;;;;;1039222;28;20103;-72
2023/12/06 00:39:23;;;;;;;2.40;1.02;;;;;;;;;;1041353;28;20025;-73
2023/12/06 00:39:53;;;;;;;3.38;3.08;;;;;;;;;;1038914;28;20112;-74
2023/12/06 00:40:23;;;;;;;5.47;1.88;;;;;;;;;;1039287;28;20022;-73
2023/12/06 00:40:54;;;;;;;2.25;1.88;;;;;;;;;;1039351;28;20024;-73
2023/12/06 00:41:24;;;;;;;1.35;1.02;;;;;;;;;;1043491;28;20036;-72
2023/12/06 00:41:55;;;;;;;1.77;1.48;;;;;;;;;;1043698;28;20099;-72
2023/12/06 00:42:26;;;;;;;3.03;2.50;;;;;;;;;;1042944;28;20488;-72
2023/12/06 00:42:56;;;;;;;9.10;4.15;;;;;;;;;;1044137;28;20024;-72
2023/12/06 00:43:27;;;;;;;1.92;1.27;;;;;;;;;;1044391;28;20392;-72
2023/12/06 00:44:01;;;;;;;2.60;2.40;;;;;;;;;;1044616;28;20434;-72
2023/12/06 00:44:32;;;;;;;5.43;1.42;;;;;;;;;;1044282;28;20309;-72
2023/12/06 00:45:02;;;;;;;5.10;1.95;;;;;;;;;;1044146;28;20559;-72
2023/12/06 00:45:33;;;;;;;3.10;2.05;;;;;;;;;;1044076;28;20476;-72
2023/12/06 00:46:03;;;;;;;4.53;3.08;;;;;;;;;;1044156;28;20108;-72
2023/12/06 00:46:34;;;;;;;1.42;1.33;;;;;;;;;;1044061;28;20077;-72
2023/12/06 00:47:04;;;;;;;6.75;4.03;;;;;;;;;;1044215;28;20021;-72
2023/12/06 00:47:36;;;;;;;2.97;2.60;;;;;;;;;;1044164;28;20025;-72
2023/12/06 00:48:07;;;;;;;1.00;1.00;;;;;;;;;;1044267;28;20021;-72
2023/12/06 00:48:37;;;;;;;1.55;1.45;;;;;;;;;;1044242;28;20027;-73
2023/12/06 00:49:08;;;;;;;1.25;1.15;;;;;;;;;;1044148;28;20111;-72
2023/12/06 00:49:38;;;;;;;2.90;1.83;;;;;;;;;;1041950;28;20017;-72
2023/12/06 00:50:09;;;;;;;2.67;1.10;;;;;;;;;;1041749;28;20028;-72
2023/12/06 00:50:39;;;;;;;2.60;1.50;;;;;;;;;;1042004;28;20532;-72
2023/12/06 00:51:10;;;;;;;3.40;3.10;;;;;;;;;;1044118;28;20029;-72
2023/12/06 00:51:41;;;;;;;3.40;1.17;;;;;;;;;;1044395;28;20025;-72
2023/12/06 00:52:11;;;;;;;4.53;1.67;;;;;;;;;;1044669;28;20029;-72
2023/12/06 00:52:42;;;;;;;5.43;2.05;;;;;;;;;;1044428;28;20025;-72
2023/12/06 00:53:12;;;;;;;3.95;2.53;;;;;;;;;;1044614;28;20029;-72
2023/12/06 00:53:43;;;;;;;6.43;3.47;;;;;;;;;;1044445;28;20017;-72
2023/12/06 00:54:13;;;;;;;4.45;1.95;;;;;;;;;;1044526;28;20021;-72
2023/12/06 00:54:43;;;;;;;12.70;1.10;;;;;;;;;;1044336;28;20013;-72
2023/12/06 00:55:14;;;;;;;1.58;1.48;;;;;;;;;;1044728;28;20079;-72
2023/12/06 00:55:44;;;;;;;5.18;2.67;;;;;;;;;;1044372;28;20104;-73
2023/12/06 00:56:15;;;;;;;2.55;2.10;;;;;;;;;;1044475;28;20024;-73
2023/12/06 00:56:45;;;;;;;15.38;2.35;;;;;;;;;;1043837;28;20484;-73
2023/12/06 00:57:16;;;;;;;7.93;1.95;;;;;;;;;;1044189;28;20465;-73
2023/12/06 00:57:46;;;;;;;1.30;1.20;;;;;;;;;;1044306;28;20021;-72
2023/12/06 00:58:17;;;;;;;4.28;0.98;;;;;;;;;;1044320;28;20396;-72
2023/12/06 00:58:47;;;;;;;3.20;2.15;;;;;;;;;;1044250;28;20028;-73
2023/12/06 00:59:18;;;;;;;2.83;2.45;;;;;;;;;;1044481;28;20048;-72
2023/12/06 00:59:48;;;;;;;6.40;1.98;;;;;;;;;;1044186;28;20484;-72
2023/12/06 01:00:19;;;;;;;1.95;1.27;;;;;;;;;;1044013;28;20021;-72
2023/12/06 01:00:49;;;;;;;2.75;1.48;;;;;;;;;;1044465;28;20082;-72
2023/12/06 01:01:19;;;;;;;4.75;1.25;;;;;;;;;;1044468;28;20032;-72
2023/12/06 01:01:50;;;;;;;0.22;0.22;;;;;;;;;;1044334;28;20025;-72
2023/12/06 01:02:21;;;;;;;9.20;1.88;;;;;;;;;;1044531;28;20389;-72
2023/12/06 01:02:51;;;;;;;2.65;2.08;;;;;;;;;;1044379;28;20473;-72
2023/12/06 01:03:22;;;;;;;5.63;0.77;;;;;;;;;;1044590;28;20108;-72
2023/12/06 01:03:52;;;;;;;3.22;2.95;;;;;;;;;;1044427;28;20051;-72
2023/12/06 01:04:23;;;;;;;1.42;1.33;;;;;;;;;;1044384;28;20020;-72
2023/12/06 01:04:53;;;;;;;4.57;3.08;;;;;;;;;;1044115;28;20389;-71
2023/12/06 01:05:23;;;;;;;6.15;2.15;;;;;;;;;;1044444;28;20095;-72
2023/12/06 01:05:54;;;;;;;6.63;1.38;;;;;;;;;;1043660;28;20021;-72
2023/12/06 01:06:26;;;;;;;1.65;1.55;;;;;;;;;;1043785;28;20066;-72
2023/12/06 01:06:56;;;;;;;4.85;1.98;;;;;;;;;;1043691;28;20048;-72
2023/12/06 01:07:27;;;;;;;2.95;2.42;;;;;;;;;;1044065;28;20167;-73
2023/12/06 01:07:57;;;;;;;3.47;2.63;;;;;;;;;;1044261;28;20123;-73
2023/12/06 01:08:28;;;;;;;3.55;2.20;;;;;;;;;;1044289;28;20537;-73
2023/12/06 01:08:58;;;;;;;2.80;0.95;;;;;;;;;;1044141;28;20423;-73
2023/12/06 01:09:29;;;;;;;3.03;1.88;;;;;;;;;;1044071;28;20028;-73
2023/12/06 01:09:59;;;;;;;3.83;1.95;;;;;;;;;;1044418;28;20021;-72
2023/12/06 01:10:30;;;;;;;4.45;3.92;;;;;;;;;;1044427;28;20454;-72
2023/12/06 01:11:00;;;;;;;3.80;1.23;;;;;;;;;;1044154;28;20469;-72
2023/12/06 01:11:30;;;;;;;4.30;3.42;;;;;;;;;;1044079;28;20036;-73
2023/12/06 01:12:01;;;;;;;3.97;3.03;;;;;;;;;;1042137;28;20028;-73
2023/12/06 01:12:32;;;;;;;3.33;2.80;;;;;;;;;;1042093;28;20028;-73
2023/12/06 01:13:03;;;;;;;1.55;1.45;;;;;;;;;;1041024;28;20158;-73
2023/12/06 01:13:34;;;;;;;26.63;2.88;;;;;;;;;;1044108;28;20071;-72
2023/12/06 01:14:04;;;;;;;7.18;5.10;;;;;;;;;;1044092;28;20170;-72
2023/12/06 01:14:34;;;;;;;7.00;4.45;;;;;;;;;;1043265;28;20064;-72
2023/12/06 01:15:05;;;;;;;2.83;2.15;;;;;;;;;;1044332;28;20079;-72
2023/12/06 01:15:36;;;;;;;0.57;0.57;;;;;;;;;;1043966;28;20067;-72
2023/12/06 01:16:06;;;;;;;3.35;1.23;;;;;;;;;;1041605;28;20029;-72
2023/12/06 01:16:37;;;;;;;9.55;3.60;;;;;;;;;;1042275;28;20025;-72
2023/12/06 01:17:07;;;;;;;2.70;2.25;;;;;;;;;;1041046;28;20024;-72
2023/12/06 01:17:38;;;;;;;3.03;1.67;;;;;;;;;;1043912;28;20031;-72
2023/12/06 01:18:08;;;;;;;1.83;1.73;;;;;;;;;;1043978;28;20021;-72
2023/12/06 01:18:39;;;;;;;2.85;1.77;;;;;;;;;;1039553;28;20068;-72
2023/12/06 01:19:09;;;;;;;1.67;1.23;;;;;;;;;;1039692;28;20030;-72
2023/12/06 01:19:40;;;;;;;1.77;1.67;;;;;;;;;;1042980;28;20017;-73
2023/12/06 01:20:10;;;;;;;1.13;1.02;;;;;;;;;;1043995;28;20032;-72
2023/12/06 01:20:41;;;;;;;1.38;1.27;;;;;;;;;;1043974;28;20092;-71
2023/12/06 01:21:11;;;;;;;4.22;1.88;;;;;;;;;;1043556;28;20029;-73
2023/12/06 01:21:42;;;;;;;2.42;2.25;;;;;;;;;;1043548;28;20020;-72
2023/12/06 01:22:13;;;;;;;4.45;2.65;;;;;;;;;;1043327;28;20025;-72
2023/12/06 01:22:43;;;;;;;2.40;1.65;;;;;;;;;;1042699;28;20025;-71
2023/12/06 01:23:14;;;;;;;1.55;1.45;;;;;;;;;;1043378;28;20029;-72
2023/12/06 01:23:44;;;;;;;5.20;1.77;;;;;;;;;;1042737;28;20200;-72
2023/12/06 01:24:15;;;;;;;2.30;1.42;;;;;;;;;;1043153;28;20112;-72
2023/12/06 01:24:47;;;;;;;5.28;1.02;;;;;;;;;;1043246;28;20151;-71
2023/12/06 01:25:17;;;;;;;4.22;2.10;;;;;;;;;;1042565;28;20036;-72
2023/12/06 01:25:48;;;;;;;2.95;2.13;;;;;;;;;;1043750;28;20027;-72
2023/12/06 01:26:18;;;;;;;4.43;2.72;;;;;;;;;;1043216;28;20111;-72
2023/12/06 01:26:49;;;;;;;6.70;2.72;;;;;;;;;;1043484;28;20017;-71
2023/12/06 01:27:19;;;;;;;5.43;3.65;;;;;;;;;;1042637;28;20633;-72
2023/12/06 01:27:50;;;;;;;1.65;1.05;;;;;;;;;;1042138;28;20029;-72
2023/12/06 01:28:20;;;;;;;3.40;2.03;;;;;;;;;;1041923;28;20055;-73
2023/12/06 01:28:51;;;;;;;2.13;1.67;;;;;;;;;;1042650;28;20527;-72
2023/12/06 01:29:22;;;;;;;3.22;2.22;;;;;;;;;;1043043;28;20551;-72
2023/12/06 01:29:52;;;;;;;1.90;1.40;;;;;;;;;;1041142;28;20032;-72
2023/12/06 01:30:24;;;;;;;1.13;1.08;;;;;;;;;;1041282;28;20122;-72
2023/12/06 01:30:54;;;;;;;8.85;2.55;;;;;;;;;;1041631;28;20059;-72
2023/12/06 01:31:25;;;;;;;1.45;1.35;;;;;;;;;;1038744;28;20852;-72
2023/12/06 01:31:55;;;;;;;3.25;1.95;;;;;;;;;;1040182;28;20041;-71
2023/12/06 01:32:26;;;;;;;1.30;1.20;;;;;;;;;;1041114;28;20020;-72
2023/12/06 01:33:00;;;;;;;2.35;2.10;;;;;;;;;;1042551;28;20017;-72
2023/12/06 01:33:31;;;;;;;6.65;5.15;;;;;;;;;;1043353;28;20033;-72
2023/12/06 01:34:02;;;;;;;1.55;1.45;;;;;;;;;;1043140;28;20067;-73
2023/12/06 01:34:32;;;;;;;14.45;2.75;;;;;;;;;;1043001;28;20023;-72
2023/12/06 01:35:03;;;;;;;2.80;2.60;;;;;;;;;;1043432;28;20024;-72
2023/12/06 01:35:33;;;;;;;3.33;3.03;;;;;;;;;;1044004;28;20094;-72
2023/12/06 01:36:04;;;;;;;7.15;2.22;;;;;;;;;;1042981;28;20112;-72
2023/12/06 01:36:35;;;;;;;6.30;3.05;;;;;;;;;;1043009;28;21170;-72
2023/12/06 01:37:05;;;;;;;4.35;2.47;;;;;;;;;;1042755;28;20102;-72
2023/12/06 01:37:36;;;;;;;2.42;2.22;;;;;;;;;;1043005;28;20021;-72
2023/12/06 01:38:07;;;;;;;1.85;1.67;;;;;;;;;;1042569;28;20049;-73
2023/12/06 01:38:37;;;;;;;4.55;3.85;;;;;;;;;;1043425;28;20025;-73
2023/12/06 01:39:08;;;;;;;4.63;3.20;;;;;;;;;;1042029;28;20074;-73
2023/12/06 01:39:38;;;;;;;4.28;3.88;;;;;;;;;;1043793;28;20028;-72
2023/12/06 01:40:09;;;;;;;2.63;2.22;;;;;;;;;;1042192;28;20025;-71
2023/12/06 01:40:40;;;;;;;4.43;4.00;;;;;;;;;;1042701;28;20032;-72
2023/12/06 01:41:11;;;;;;;1.50;1.17;;;;;;;;;;1042783;28;20144;-72
2023/12/06 01:41:48;;;;;;;1.90;1.33;;;;;;;;;;1043208;28;20029;-73
2023/12/06 01:42:19;;;;;;;3.70;2.35;;;;;;;;;;1042224;28;20021;-72
2023/12/06 01:42:49;;;;;;;1.55;1.45;;;;;;;;;;1043468;28;20025;-73
2023/12/06 01:43:20;;;;;;;1.23;1.13;;;;;;;;;;1042747;28;20079;-73
2023/12/06 01:43:50;;;;;;;6.13;5.25;;;;;;;;;;1043144;28;20087;-73
2023/12/06 01:44:21;;;;;;;6.53;2.67;;;;;;;;;;1042741;28;20029;-72
2023/12/06 01:44:52;;;;;;;4.32;3.13;;;;;;;;;;1042711;28;20033;-73
2023/12/06 01:45:22;;;;;;;3.00;2.78;;;;;;;;;;1042508;28;20029;-73
2023/12/06 01:45:53;;;;;;;2.20;2.05;;;;;;;;;;1042192;28;20524;-72
2023/12/06 01:46:24;;;;;;;4.95;3.95;;;;;;;;;;1042749;28;20178;-72
2023/12/06 01:46:55;;;;;;;6.75;4.72;;;;;;;;;;1044005;28;20471;-74
2023/12/06 01:47:27;;;;;;;6.68;5.03;;;;;;;;;;1043501;28;20520;-73
2023/12/06 01:47:58;;;;;;;21.40;6.18;;;;;;;;;;1043761;28;20028;-73
2023/12/06 01:48:29;;;;;;;31.42;3.15;;;;;;;;;;1043287;28;20021;-74
2023/12/06 01:49:02;;;;;;;10.27;7.28;;;;;;;;;;1043695;28;20105;-72
2023/12/06 01:49:33;;;;;;;3.90;3.17;;;;;;;;;;1043413;28;20593;-74
2023/12/06 01:50:06;;;;;;;3.20;1.40;;;;;;;;;;1042804;28;20021;-74
2023/12/06 01:50:38;;;;;;;4.55;2.53;;;;;;;;;;1043739;28;20143;-73
2023/12/06 01:51:09;;;;;;;13.07;5.57;;;;;;;;;;1042921;28;20057;-73
2023/12/06 01:51:40;;;;;;;2.08;1.98;;;;;;;;;;1043867;28;20028;-73
2023/12/06 01:52:10;;;;;;;5.78;4.25;;;;;;;;;;1043279;28;20094;-72
2023/12/06 01:52:41;;;;;;;8.27;5.07;;;;;;;;;;1043037;28;20048;-73
2023/12/06 01:53:12;;;;;;;6.07;3.45;;;;;;;;;;1042505;28;20540;-73
2023/12/06 01:53:42;;;;;;;4.97;3.05;;;;;;;;;;1043121;28;20123;-73
2023/12/06 01:54:13;;;;;;;6.15;5.38;;;;;;;;;;1042801;28;20025;-73
2023/12/06 01:54:44;;;;;;;4.30;3.40;;;;;;;;;;1043617;28;20024;-73
2023/12/06 01:55:14;;;;;;;10.05;5.38;;;;;;;;;;1044140;28;20081;-73
2023/12/06 01:55:45;;;;;;;18.73;11.45;;;;;;;;;;1043829;28;20440;-73
2023/12/06 01:56:17;;;;;;;6.63;4.63;;;;;;;;;;1038996;28;20021;-73
2023/12/06 01:56:47;;;;;;;20.77;11.50;;;;;;;;;;1040848;28;20043;-74
2023/12/06 01:57:18;;;;;;;22.02;8.52;;;;;;;;;;1041419;28;20025;-74
2023/12/06 01:57:49;;;;;;;11.63;8.38;;;;;;;;;;1040677;28;20026;-72
2023/12/06 01:58:20;;;;;;;9.85;6.20;;;;;;;;;;1043809;28;20565;-72
2023/12/06 01:58:51;;;;;;;9.98;7.25;;;;;;;;;;1043155;28;20055;-73
2023/12/06 01:59:21;;;;;;;26.50;7.30;;;;;;;;;;1043254;28;20029;-72
2023/12/06 01:59:52;;;;;;;7.40;4.03;;;;;;;;;;1043232;28;20527;-75
2023/12/06 02:00:24;;;;;;;7.60;4.20;;;;;;;;;;1042230;28;20408;-73
2023/12/06 02:00:54;;;;;;;11.15;7.43;;;;;;;;;;1043978;28;20470;-73
2023/12/06 02:01:25;;;;;;;18.35;7.90;;;;;;;;;;1043753;28;20060;-71
2023/12/06 02:01:57;;;;;;;20.48;10.48;;;;;;;;;;1043607;28;20061;-72
2023/12/06 02:02:28;;;;;;;23.08;9.65;;;;;;;;;;1042726;28;20112;-72
2023/12/06 02:02:58;;;;;;;20.30;9.38;;;;;;;;;;1039532;28;20374;-72
2023/12/06 02:03:29;;;;;;;25.73;11.50;;;;;;;;;;1039584;28;20032;-72
2023/12/06 02:04:00;;;;;;;23.48;12.38;;;;;;;;;;1035964;28;20030;-73
2023/12/06 02:04:31;;;;;;;29.75;10.82;;;;;;;;;;1041819;28;20121;-72
2023/12/06 02:05:01;;;;;;;12.98;9.07;;;;;;;;;;1042466;28;20566;-72
2023/12/06 02:05:32;;;;;;;9.82;4.93;;;;;;;;;;1043671;28;20017;-72
2023/12/06 02:06:03;;;;;;;8.30;5.35;;;;;;;;;;1039612;28;20060;-72
2023/12/06 02:06:34;;;;;;;13.18;7.60;;;;;;;;;;1043233;28;20530;-73
2023/12/06 02:07:04;;;;;;;10.35;9.15;;;;;;;;;;1039796;28;20021;-73
2023/12/06 02:07:35;;;;;;;15.50;8.32;;;;;;;;;;1039202;28;20029;-72
2023/12/06 02:08:06;;;;;;;10.77;6.03;;;;;;;;;;1043167;28;20033;-72
2023/12/06 02:08:39;;;;;;;13.70;9.63;;;;;;;;;;1043735;28;20043;-72
2023/12/06 02:09:12;;;;;;;9.63;8.68;;;;;;;;;;1042960;28;20041;-73
2023/12/06 02:09:44;;;;;;;19.85;6.30;;;;;;;;;;1043216;28;20032;-73
2023/12/06 02:10:15;;;;;;;10.85;8.18;;;;;;;;;;1043432;28;20021;-73
2023/12/06 02:10:45;;;;;;;12.50;7.05;;;;;;;;;;1039189;28;20104;-73
2023/12/06 02:11:16;;;;;;;3.83;3.53;;;;;;;;;;1039433;28;20057;-73
2023/12/06 02:11:46;;;;;;;19.42;8.80;;;;;;;;;;1033978;28;20029;-73
2023/12/06 02:12:17;;;;;;;8.07;6.55;;;;;;;;;;1038773;28;20033;-73
2023/12/06 02:12:48;;;;;;;4.85;4.50;;;;;;;;;;1039535;28;20097;-73
2023/12/06 02:13:19;;;;;;;23.40;12.40;;;;;;;;;;1041888;28;20027;-74
2023/12/06 02:13:49;;;;;;;6.95;6.28;;;;;;;;;;1039154;28;20198;-73
2023/12/06 02:14:20;;;;;;;10.57;7.35;;;;;;;;;;1040137;28;20022;-73
2023/12/06 02:14:50;;;;;;;5.80;5.32;;;;;;;;;;1039299;28;20021;-75
2023/12/06 02:15:21;;;;;;;10.98;9.90;;;;;;;;;;1040236;28;20025;-73
2023/12/06 02:15:52;;;;;;;10.25;7.20;;;;;;;;;;1041847;28;20026;-73
2023/12/06 02:16:26;;;;;;;25.30;5.88;;;;;;;;;;1039357;28;20128;-74
2023/12/06 02:16:57;;;;;;;7.97;3.88;;;;;;;;;;1040790;28;20024;-74
2023/12/06 02:17:28;;;;;;;5.45;4.82;;;;;;;;;;1041454;28;20035;-74
2023/12/06 02:17:58;;;;;;;16.20;6.35;;;;;;;;;;1043056;28;20032;-74
2023/12/06 02:18:29;;;;;;;9.88;4.70;;;;;;;;;;1041504;28;20856;-74
2023/12/06 02:19:00;;;;;;;19.95;3.88;;;;;;;;;;1042821;28;20025;-74
2023/12/06 02:19:31;;;;;;;9.85;6.18;;;;;;;;;;1041856;28;20025;-74
2023/12/06 02:20:02;;;;;;;23.42;4.50;;;;;;;;;;1041341;28;20020;-74
2023/12/06 02:20:33;;;;;;;11.00;8.55;;;;;;;;;;1041788;28;20020;-74
2023/12/06 02:21:04;;;;;;;7.20;5.55;;;;;;;;;;1042341;28;20025;-74
2023/12/06 02:21:35;;;;;;;6.53;5.93;;;;;;;;;;1042031;28;20068;-74
2023/12/06 02:22:06;;;;;;;11.13;6.13;;;;;;;;;;1042593;28;20477;-73
2023/12/06 02:22:38;;;;;;;8.88;5.90;;;;;;;;;;1041617;28;20056;-73
2023/12/06 02:23:09;;;;;;;34.97;8.80;;;;;;;;;;1039081;28;20017;-73
2023/12/06 02:23:45;;;;;;;13.35;9.70;;;;;;;;;;1039332;28;20021;-74
2023/12/06 02:24:17;;;;;;;7.10;6.57;;;;;;;;;;1042057;28;20469;-74
2023/12/06 02:24:49;;;;;;;7.80;6.70;;;;;;;;;;1041457;28;20024;-75
2023/12/06 02:25:20;;;;;;;5.47;5.00;;;;;;;;;;1040615;28;20029;-73
2023/12/06 02:25:50;;;;;;;7.10;6.30;;;;;;;;;;1041583;28;20027;-73
2023/12/06 02:26:21;;;;;;;7.05;5.03;;;;;;;;;;1040688;28;20262;-74
2023/12/06 02:26:52;;;;;;;6.35;5.75;;;;;;;;;;1041687;28;20017;-73
2023/12/06 02:27:23;;;;;;;6.07;5.50;;;;;;;;;;1041015;28;20016;-74
2023/12/06 02:27:53;;;;;;;3.53;3.30;;;;;;;;;;1041704;28;20024;-74
2023/12/06 02:28:24;;;;;;;7.20;4.55;;;;;;;;;;1041778;28;20013;-74
2023/12/06 02:28:54;;;;;;;9.00;6.53;;;;;;;;;;1041165;28;20382;-74
2023/12/06 02:29:25;;;;;;;17.10;7.35;;;;;;;;;;1041800;28;20263;-73
2023/12/06 02:29:57;;;;;;;6.25;4.78;;;;;;;;;;1042082;28;20045;-74
2023/12/06 02:30:27;;;;;;;5.68;4.28;;;;;;;;;;1041677;28;20052;-73
2023/12/06 02:30:58;;;;;;;4.20;3.85;;;;;;;;;;1041762;28;20027;-74
2023/12/06 02:31:29;;;;;;;8.98;5.05;;;;;;;;;;1041108;28;20017;-74
2023/12/06 02:32:00;;;;;;;15.93;6.40;;;;;;;;;;1041758;28;20021;-74
2023/12/06 02:32:30;;;;;;;22.27;8.55;;;;;;;;;;1042390;28;20119;-74
2023/12/06 02:33:01;;;;;;;5.93;4.68;;;;;;;;;;1042354;28;20099;-74
2023/12/06 02:33:32;;;;;;;8.32;6.30;;;;;;;;;;1040551;28;20385;-75
2023/12/06 02:34:11;;;;;;;24.65;6.65;;;;;;;;;;1036783;28;20032;-74
2023/12/06 02:34:42;;;;;;;10.10;4.28;;;;;;;;;;1037818;28;20336;-75
2023/12/06 02:35:16;;;;;;;5.28;3.50;;;;;;;;;;1037297;28;20032;-74
2023/12/06 02:35:49;;;;;;;4.05;3.67;;;;;;;;;;1039052;28;20027;-74
2023/12/06 02:36:19;;;;;;;7.32;2.58;;;;;;;;;;1037964;28;20033;-74
2023/12/06 02:36:51;;;;;;;7.20;5.35;;;;;;;;;;1036953;28;20043;-74
2023/12/06 02:37:22;;;;;;;4.65;2.42;;;;;;;;;;1034032;28;20044;-74
2023/12/06 02:37:55;;;;;;;2.20;2.10;;;;;;;;;;1037324;28;20021;-75
2023/12/06 02:38:25;;;;;;;10.05;6.55;;;;;;;;;;1037741;28;20184;-75
2023/12/06 02:38:56;;;;;;;13.98;6.75;;;;;;;;;;1038548;28;20159;-74
2023/12/06 02:39:32;;;;;;;10.48;5.32;;;;;;;;;;1040439;28;20029;-76
2023/12/06 02:40:04;;;;;;;3.70;3.35;;;;;;;;;;1037893;28;20453;-73
2023/12/06 02:40:35;;;;;;;6.47;5.90;;;;;;;;;;1038505;28;20079;-74
2023/12/06 02:41:06;;;;;;;6.03;4.20;;;;;;;;;;1039219;28;20032;-74
2023/12/06 02:41:37;;;;;;;4.07;2.95;;;;;;;;;;1039851;28;20021;-73
2023/12/06 02:42:08;;;;;;;7.68;3.90;;;;;;;;;;1040479;28;20025;-73
2023/12/06 02:42:39;;;;;;;4.32;4.03;;;;;;;;;;1042879;28;20017;-73
2023/12/06 02:43:09;;;;;;;3.20;2.97;;;;;;;;;;1043295;28;20028;-74
2023/12/06 02:43:40;;;;;;;7.35;4.70;;;;;;;;;;1043299;28;20063;-75
2023/12/06 02:44:10;;;;;;;3.92;2.67;;;;;;;;;;1043400;28;20465;-74
2023/12/06 02:44:41;;;;;;;5.05;3.88;;;;;;;;;;1042473;28;20025;-73
2023/12/06 02:45:12;;;;;;;1.65;1.55;;;;;;;;;;1043400;28;20557;-74
2023/12/06 02:45:43;;;;;;;3.33;3.03;;;;;;;;;;1042486;28;20501;-75
2023/12/06 02:46:13;;;;;;;3.78;2.95;;;;;;;;;;1038446;28;20024;-73
2023/12/06 02:46:44;;;;;;;5.03;4.68;;;;;;;;;;1038209;28;20022;-73
2023/12/06 02:47:15;;;;;;;5.00;4.38;;;;;;;;;;1038489;28;20033;-73
2023/12/06 02:47:48;;;;;;;2.30;2.13;;;;;;;;;;1041624;28;20055;-73
2023/12/06 02:48:19;;;;;;;23.95;3.53;;;;;;;;;;1043012;28;20027;-74
2023/12/06 02:48:49;;;;;;;7.95;3.30;;;;;;;;;;1042628;28;20365;-76
2023/12/06 02:49:20;;;;;;;4.47;4.13;;;;;;;;;;1037706;28;20057;-74
2023/12/06 02:49:51;;;;;;;8.75;3.08;;;;;;;;;;1035212;28;20030;-73
2023/12/06 02:50:21;;;;;;;9.60;6.40;;;;;;;;;;1035806;28;20181;-74
2023/12/06 02:50:52;;;;;;;10.52;4.78;;;;;;;;;;1036358;28;20060;-74
2023/12/06 02:51:25;;;;;;;7.65;4.68;;;;;;;;;;1039129;28;20125;-74
2023/12/06 02:51:56;;;;;;;7.25;4.15;;;;;;;;;;1037285;28;20610;-74
2023/12/06 02:52:26;;;;;;;2.38;2.17;;;;;;;;;;1037889;28;20037;-74
2023/12/06 02:52:57;;;;;;;4.03;1.65;;;;;;;;;;1038212;28;20163;-73
2023/12/06 02:53:27;;;;;;;1.48;1.38;;;;;;;;;;1036061;28;20026;-74
2023/12/06 02:53:58;;;;;;;1.77;1.65;;;;;;;;;;1040973;28;20036;-74
2023/12/06 02:54:28;;;;;;;5.07;3.58;;;;;;;;;;1042322;28;20035;-73
2023/12/06 02:54:59;;;;;;;1.90;1.80;;;;;;;;;;1041804;28;20053;-73
2023/12/06 02:55:30;;;;;;;14.05;2.58;;;;;;;;;;1042385;28;20400;-73
2023/12/06 02:56:00;;;;;;;3.42;3.13;;;;;;;;;;1042981;28;20024;-73
2023/12/06 02:56:31;;;;;;;7.85;2.17;;;;;;;;;;1042366;28;20108;-74
2023/12/06 02:57:01;;;;;;;6.68;3.47;;;;;;;;;;1040475;28;20540;-73
2023/12/06 02:57:32;;;;;;;0.95;0.88;;;;;;;;;;1038116;28;20098;-72
2023/12/06 02:58:06;;;;;;;2.50;2.30;;;;;;;;;;1040010;28;20167;-73
2023/12/06 02:58:37;;;;;;;2.45;2.25;;;;;;;;;;1037015;28;20049;-72
2023/12/06 02:59:08;;;;;;;1.00;1.00;;;;;;;;;;1035834;28;20065;-73
2023/12/06 02:59:38;;;;;;;1.15;1.15;;;;;;;;;;1036348;28;20466;-73
2023/12/06 03:00:10;;;;;;;2.88;2.67;;;;;;;;;;1038305;28;20060;-73
2023/12/06 03:00:42;;;;;;;3.38;3.08;;;;;;;;;;1034508;28;20365;-72
2023/12/06 03:01:13;;;;;;;3.00;2.80;;;;;;;;;;1035871;28;21001;-73
2023/12/06 03:01:50;;;;;;;2.60;2.33;;;;;;;;;;1036001;28;20025;-75
2023/12/06 03:02:20;;;;;;;5.03;1.48;;;;;;;;;;1033352;28;20490;-74
2023/12/06 03:02:51;;;;;;;2.20;2.05;;;;;;;;;;1032300;28;20349;-74
2023/12/06 03:03:24;;;;;;;3.80;3.50;;;;;;;;;;1033655;28;20059;-74
2023/12/06 03:03:54;;;;;;;5.35;4.18;;;;;;;;;;1032583;28;20046;-74
2023/12/06 03:04:25;;;;;;;2.10;1.95;;;;;;;;;;1034949;28;20091;-72